createdAt,value
2023-01-05T00:01:50.845Z,97602.94
2023-01-05T00:04:19.141Z,97601.69
2023-01-05T00:06:46.676Z,97606.91
2023-01-05T00:09:18.006Z,97602.50
2023-01-05T00:12:03.863Z,97628.44
2023-01-05T00:14:52.071Z,97588.28
2023-01-05T00:17:42.427Z,97603.66
2023-01-05T00:20:39.494Z,97580.53
2023-01-05T00:23:08.988Z,97570.22
2023-01-05T00:25:41.958Z,97571.50
2023-01-05T00:28:09.506Z,97608.78
2023-01-05T00:30:42.677Z,97561.59
2023-01-05T00:33:16.853Z,97573.16
2023-01-05T00:35:44.643Z,97545.78
2023-01-05T00:38:12.253Z,97551.16
2023-01-05T00:40:40.181Z,97543.94
2023-01-05T00:43:07.488Z,97542.28
2023-01-05T00:45:35.229Z,97562.19
2023-01-05T00:48:02.543Z,97564.25
2023-01-05T00:50:30.131Z,97555.03
2023-01-05T00:52:57.387Z,97537.13
2023-01-05T00:55:24.531Z,97552.75
2023-01-05T00:57:52.012Z,97557.13
2023-01-05T01:00:20.065Z,97525.28
2023-01-05T01:02:51.821Z,97554.88
2023-01-05T01:05:19.808Z,97520.38
2023-01-05T01:07:48.772Z,97531.69
2023-01-05T01:10:16.341Z,97531.97
2023-01-05T01:12:43.851Z,97540.81
2023-01-05T01:15:11.479Z,97551.44
2023-01-05T01:17:39.063Z,97521.72
2023-01-05T01:20:07.343Z,97522.78
2023-01-05T01:22:34.890Z,97524.94
2023-01-05T01:25:02.090Z,97544.94
2023-01-05T01:27:32.182Z,97512.31
2023-01-05T01:29:59.433Z,97497.28
2023-01-05T01:32:26.986Z,97482.25
2023-01-05T01:34:55.360Z,97481.63
2023-01-05T01:37:22.910Z,97472.88
2023-01-05T01:39:50.134Z,97494.66
2023-01-05T01:42:17.721Z,97507.59
2023-01-05T01:44:51.721Z,97497.38
2023-01-05T01:47:32.621Z,97464.44
2023-01-05T01:50:08.561Z,97450.69
2023-01-05T01:52:38.113Z,97449.25
2023-01-05T01:55:07.151Z,97472.84
2023-01-05T01:57:37.196Z,97434.16
2023-01-05T02:00:08.831Z,97457.75
2023-01-05T02:02:36.590Z,97451.25
2023-01-05T02:05:11.232Z,97464.50
2023-01-05T02:07:47.363Z,97459.81
2023-01-05T02:10:32.433Z,97450.00
2023-01-05T02:13:31.711Z,97449.16
2023-01-05T02:16:05.141Z,97459.38
2023-01-05T02:19:24.826Z,97430.00
2023-01-05T02:22:18.867Z,97440.56
2023-01-05T02:25:23.952Z,97441.00
2023-01-05T02:28:37.034Z,97426.69
2023-01-05T02:31:25.226Z,97423.59
2023-01-05T02:34:48.787Z,97461.63
2023-01-05T02:37:30.647Z,97402.63
2023-01-05T02:40:08.578Z,97439.03
2023-01-05T02:42:39.636Z,97410.22
2023-01-05T02:45:09.285Z,97415.31
2023-01-05T02:47:44.245Z,97411.75
2023-01-05T02:50:20.290Z,97410.06
2023-01-05T02:53:24.440Z,97371.31
2023-01-05T02:56:12.752Z,97384.38
2023-01-05T02:59:08.503Z,97390.28
2023-01-05T03:01:59.070Z,97366.13
2023-01-05T03:04:40.844Z,97384.00
2023-01-05T03:07:14.699Z,97388.28
2023-01-05T03:09:45.516Z,97396.13
2023-01-05T03:12:52.085Z,97367.78
2023-01-05T03:15:39.212Z,97376.91
2023-01-05T03:18:20.431Z,97403.31
2023-01-05T03:20:52.447Z,97376.09
2023-01-05T03:23:40.740Z,97366.69
2023-01-05T03:26:31.086Z,97382.38
2023-01-05T03:29:22.005Z,97367.31
2023-01-05T03:32:19.898Z,97370.53
2023-01-05T03:35:11.582Z,97411.06
2023-01-05T03:38:18.527Z,97341.84
2023-01-05T03:40:47.379Z,97352.75
2023-01-05T03:43:15.383Z,97374.91
2023-01-05T03:45:53.197Z,97431.84
2023-01-05T03:48:22.673Z,97382.78
2023-01-05T03:50:50.434Z,97363.81
2023-01-05T03:53:18.487Z,97356.25
2023-01-05T03:55:46.193Z,97346.53
2023-01-05T03:58:13.779Z,97361.66
2023-01-05T04:00:41.150Z,97333.25
2023-01-05T04:03:10.608Z,97342.50
2023-01-05T04:05:38.211Z,97341.78
2023-01-05T04:08:06.575Z,97364.00
2023-01-05T04:10:34.070Z,97351.38
2023-01-05T04:13:01.672Z,97364.50
2023-01-05T04:15:29.218Z,97315.13
2023-01-05T04:17:56.885Z,97355.72
2023-01-05T04:20:24.138Z,97347.22
2023-01-05T04:22:51.686Z,97332.75
2023-01-05T04:25:18.990Z,97352.88
2023-01-05T04:27:46.532Z,97338.56
2023-01-05T04:30:13.864Z,97342.59
2023-01-05T04:32:41.449Z,97336.66
2023-01-05T04:35:11.533Z,97356.44
2023-01-05T04:37:39.851Z,97347.56
2023-01-05T04:40:07.874Z,97365.66
2023-01-05T04:42:35.414Z,97325.91
2023-01-05T04:45:02.680Z,97324.50
2023-01-05T04:47:30.219Z,97324.00
2023-01-05T04:49:57.488Z,97344.00
2023-01-05T04:52:25.036Z,97364.00
2023-01-05T04:54:52.368Z,97324.84
2023-01-05T04:57:19.939Z,97365.44
2023-01-05T04:59:47.248Z,97330.75
2023-01-05T05:02:15.254Z,97363.97
2023-01-05T05:04:42.667Z,97339.34
2023-01-05T05:07:10.742Z,97335.78
2023-01-05T05:09:38.066Z,97348.94
2023-01-05T05:12:05.924Z,97333.53
2023-01-05T05:14:33.273Z,97336.72
2023-01-05T05:17:00.925Z,97330.22
2023-01-05T05:19:28.236Z,97328.94
2023-01-05T05:21:55.821Z,97326.69
2023-01-05T05:24:24.521Z,97344.78
2023-01-05T05:26:52.201Z,97324.19
2023-01-05T05:29:19.483Z,97333.19
2023-01-05T05:31:47.222Z,97330.97
2023-01-05T05:34:14.908Z,97327.41
2023-01-05T05:36:42.754Z,97323.59
2023-01-05T05:39:13.322Z,97330.38
2023-01-05T05:41:41.155Z,97317.81
2023-01-05T05:44:09.254Z,97312.97
2023-01-05T05:46:36.912Z,97314.63
2023-01-05T05:49:04.903Z,97302.44
2023-01-05T05:51:32.949Z,97324.34
2023-01-05T05:54:00.678Z,97315.97
2023-01-05T05:56:28.364Z,97299.84
2023-01-05T05:59:01.047Z,97320.69
2023-01-05T06:01:29.984Z,97312.84
2023-01-05T06:03:57.475Z,97304.78
2023-01-05T06:06:25.043Z,97310.44
2023-01-05T06:08:52.501Z,97302.06
2023-01-05T06:11:20.148Z,97310.97
2023-01-05T06:13:48.934Z,97302.69
2023-01-05T06:16:16.948Z,97308.03
2023-01-05T06:18:44.216Z,97309.31
2023-01-05T06:21:11.828Z,97305.53
2023-01-05T06:23:39.132Z,97294.44
2023-01-05T06:26:06.987Z,97301.53
2023-01-05T06:28:34.290Z,97308.88
2023-01-05T06:31:01.974Z,97323.69
2023-01-05T06:33:29.260Z,97320.59
2023-01-05T06:35:58.811Z,97328.16
2023-01-05T06:38:26.584Z,97336.44
2023-01-05T06:40:54.808Z,97325.44
2023-01-05T06:43:22.231Z,97351.75
2023-01-05T06:45:49.947Z,97361.47
2023-01-05T06:48:17.298Z,97361.66
2023-01-05T06:50:45.017Z,97352.31
2023-01-05T06:53:12.316Z,97392.91
2023-01-05T06:55:40.548Z,97389.97
2023-01-05T06:58:07.844Z,97402.63
2023-01-05T07:00:35.506Z,97428.69
2023-01-05T07:03:03.259Z,97413.16
2023-01-05T07:05:31.481Z,97433.88
2023-01-05T07:07:58.800Z,97437.69
2023-01-05T07:10:26.411Z,97460.84
2023-01-05T07:12:53.671Z,97432.63
2023-01-05T07:15:21.264Z,97428.13
2023-01-05T07:17:48.611Z,97423.91
2023-01-05T07:20:17.429Z,97419.38
2023-01-05T07:22:44.719Z,97417.72
2023-01-05T07:25:12.523Z,97422.50
2023-01-05T07:27:39.776Z,97421.94
2023-01-05T07:30:08.468Z,97428.69
2023-01-05T07:32:35.855Z,97428.53
2023-01-05T07:35:03.880Z,97450.97
2023-01-05T07:37:31.245Z,97450.00
2023-01-05T07:39:58.791Z,97436.00
2023-01-05T07:42:26.302Z,97430.19
2023-01-05T07:44:53.990Z,97431.56
2023-01-05T07:47:21.424Z,97421.47
2023-01-05T07:49:49.053Z,97416.66
2023-01-05T07:52:17.854Z,97423.88
2023-01-05T07:54:45.587Z,97423.25
2023-01-05T07:57:12.896Z,97415.28
2023-01-05T07:59:40.405Z,97411.75
2023-01-05T08:02:09.835Z,97430.94
2023-01-05T08:04:37.583Z,97420.69
2023-01-05T08:07:11.423Z,97421.22
2023-01-05T08:09:58.157Z,97405.06
2023-01-05T08:12:25.833Z,97436.28
2023-01-05T08:14:53.458Z,97440.97
2023-01-05T08:17:20.830Z,97436.16
2023-01-05T08:19:48.486Z,97427.38
2023-01-05T08:22:15.862Z,97434.75
2023-01-05T08:24:43.432Z,97442.94
2023-01-05T08:27:10.799Z,97435.38
2023-01-05T08:29:38.430Z,97444.38
2023-01-05T08:32:06.034Z,97431.59
2023-01-05T08:34:35.006Z,97451.75
2023-01-05T08:37:02.539Z,97429.63
2023-01-05T08:39:30.169Z,97421.41
2023-01-05T08:42:02.353Z,97428.47
2023-01-05T08:44:30.692Z,97438.28
2023-01-05T08:46:58.200Z,97434.28
2023-01-05T08:49:25.900Z,97434.19
2023-01-05T08:51:53.338Z,97441.69
2023-01-05T08:54:20.957Z,97433.84
2023-01-05T08:56:50.669Z,97438.47
2023-01-05T08:59:18.760Z,97435.50
2023-01-05T09:01:46.375Z,97446.66
2023-01-05T09:04:14.303Z,97442.50
2023-01-05T09:06:41.790Z,97453.75
2023-01-05T09:09:10.490Z,97434.66
2023-01-05T09:11:38.225Z,97442.72
2023-01-05T09:14:05.836Z,97437.38
2023-01-05T09:17:05.283Z,97455.75
2023-01-05T09:19:23.070Z,97452.47
2023-01-05T09:21:50.895Z,97449.47
2023-01-05T09:24:19.334Z,97454.16
2023-01-05T09:26:47.090Z,97452.13
2023-01-05T09:29:14.913Z,97463.56
2023-01-05T09:31:42.598Z,97456.78
2023-01-05T09:34:11.224Z,97459.91
2023-01-05T09:36:41.735Z,97453.91
2023-01-05T09:39:15.471Z,97432.47
2023-01-05T09:42:00.980Z,97453.91
2023-01-05T09:44:42.371Z,97437.19
2023-01-05T09:47:43.135Z,97450.06
2023-01-05T09:50:33.569Z,97443.69
2023-01-05T09:53:01.290Z,97447.41
2023-01-05T09:55:32.743Z,97440.88
2023-01-05T09:58:16.572Z,97442.59
2023-01-05T10:01:07.625Z,97448.22
2023-01-05T10:06:35.810Z,97445.19
2023-01-05T10:09:05.547Z,97441.03
2023-01-05T10:12:15.557Z,97460.00
2023-01-05T10:14:53.449Z,97445.06
2023-01-05T10:17:41.293Z,97447.72
2023-01-05T10:20:50.630Z,97437.72
2023-01-05T10:23:46.370Z,97438.16
2023-01-05T10:26:24.973Z,97430.03
2023-01-05T10:29:18.223Z,97426.22
2023-01-05T10:32:22.037Z,97429.88
2023-01-05T10:35:00.764Z,97417.50
2023-01-05T10:37:41.258Z,97410.97
2023-01-05T10:40:23.066Z,97416.91
2023-01-05T10:43:21.584Z,97402.94
2023-01-05T10:46:19.890Z,97395.84
2023-01-05T10:48:40.334Z,97404.09
2023-01-05T10:51:10.973Z,97404.41
2023-01-05T10:53:42.633Z,97401.75
2023-01-05T10:56:10.499Z,97414.31
2023-01-05T10:58:41.013Z,97419.50
2023-01-05T11:01:31.008Z,97407.88
2023-01-05T11:04:34.422Z,97418.63
2023-01-05T11:07:06.841Z,97409.50
2023-01-05T11:09:41.438Z,97420.59
2023-01-05T11:12:22.686Z,97407.00
2023-01-05T11:14:59.084Z,97421.59
2023-01-05T11:17:30.009Z,97406.84
2023-01-05T11:19:58.681Z,97406.53
2023-01-05T11:22:44.540Z,97413.75
2023-01-05T11:25:33.959Z,97405.19
2023-01-05T11:28:17.941Z,97401.66
2023-01-05T11:31:05.977Z,97416.09
2023-01-05T11:33:40.340Z,97410.28
2023-01-05T11:36:13.073Z,97409.56
2023-01-05T11:38:41.060Z,97419.03
2023-01-05T11:41:12.851Z,97403.31
2023-01-05T11:43:40.502Z,97412.34
2023-01-05T11:46:09.338Z,97419.88
2023-01-05T11:48:36.964Z,97381.19
2023-01-05T11:51:04.905Z,97410.03
2023-01-05T11:53:35.517Z,97400.78
2023-01-05T11:56:22.192Z,97401.31
2023-01-05T11:58:54.660Z,97410.97
2023-01-05T12:02:01.274Z,97420.75
2023-01-05T12:04:52.551Z,97418.69
2023-01-05T12:07:37.206Z,97416.38
2023-01-05T12:10:16.587Z,97434.66
2023-01-05T12:13:12.774Z,97414.34
2023-01-05T12:16:04.345Z,97427.31
2023-01-05T12:19:19.778Z,97429.78
2023-01-05T12:22:12.999Z,97421.66
2023-01-05T12:25:22.280Z,97429.94
2023-01-05T12:28:40.989Z,97430.44
2023-01-05T12:34:00.368Z,97412.88
2023-01-05T12:35:22.615Z,97408.75
2023-01-05T12:38:01.596Z,97414.84
2023-01-05T12:41:03.914Z,97449.41
2023-01-05T12:43:34.189Z,97410.53
2023-01-05T12:46:43.259Z,97412.25
2023-01-05T12:50:06.986Z,97400.25
2023-01-05T12:53:15.502Z,97424.38
2023-01-05T12:55:50.406Z,97387.69
2023-01-05T12:58:38.340Z,97422.41
2023-01-05T13:01:19.906Z,97415.38
2023-01-05T13:04:34.326Z,97413.63
2023-01-05T13:07:15.647Z,97418.75
2023-01-05T13:09:48.268Z,97436.91
2023-01-05T13:12:16.390Z,97423.50
2023-01-05T13:15:14.140Z,97434.13
2023-01-05T13:17:50.719Z,97440.63
2023-01-05T13:20:47.890Z,97451.91
2023-01-05T13:23:25.980Z,97440.25
2023-01-05T13:26:17.836Z,97444.31
2023-01-05T13:28:57.975Z,97445.88
2023-01-05T13:31:37.403Z,97451.00
2023-01-05T13:34:45.281Z,97458.22
2023-01-05T13:37:55.573Z,97466.28
2023-01-05T13:40:39.985Z,97481.88
2023-01-05T13:43:44.398Z,97467.59
2023-01-05T13:46:35.235Z,97499.03
2023-01-05T13:49:17.281Z,97516.84
2023-01-05T13:52:19.005Z,97493.66
2023-01-05T13:55:01.575Z,97501.59
2023-01-05T13:57:41.411Z,97510.25
2023-01-05T14:00:26.335Z,97521.56
2023-01-05T14:03:13.356Z,97523.38
2023-01-05T14:05:54.335Z,97535.16
2023-01-05T14:08:28.118Z,97534.75
2023-01-05T14:11:25.453Z,97543.31
2023-01-05T14:14:08.653Z,97555.53
2023-01-05T14:16:36.070Z,97532.19
2023-01-05T14:19:23.060Z,97539.84
2023-01-05T14:21:50.362Z,97533.25
2023-01-05T14:27:23.782Z,97520.69
2023-01-05T14:29:55.520Z,97519.41
2023-01-05T14:32:34.757Z,97523.72
2023-01-05T14:35:28.837Z,97516.16
2023-01-05T14:38:25.148Z,97514.13
2023-01-05T14:40:58.486Z,97522.25
2023-01-05T14:43:34.389Z,97510.81
2023-01-05T14:46:17.995Z,97510.44
2023-01-05T14:49:02.324Z,97490.44
2023-01-05T14:51:33.291Z,97492.88
2023-01-05T14:54:04.776Z,97500.06
2023-01-05T14:56:37.704Z,97514.41
2023-01-05T14:59:26.018Z,97516.34
2023-01-05T15:02:02.902Z,97536.56
2023-01-05T15:04:39.890Z,97511.03
2023-01-05T15:07:34.727Z,97512.84
2023-01-05T15:11:01.888Z,97513.59
2023-01-05T15:14:35.273Z,97522.91
2023-01-05T15:17:11.371Z,97496.69
2023-01-05T15:20:01.628Z,97537.06
2023-01-05T15:23:05.661Z,97555.00
2023-01-05T15:26:10.288Z,97538.66
2023-01-05T15:29:17.126Z,97556.88
2023-01-05T15:31:55.236Z,97556.13
2023-01-05T15:34:42.900Z,97557.28
2023-01-05T15:37:33.616Z,97564.28
2023-01-05T15:40:04.412Z,97563.25
2023-01-05T15:42:44.657Z,97555.84
2023-01-05T15:45:37.273Z,97562.50
2023-01-05T15:48:14.808Z,97561.03
2023-01-05T15:50:55.076Z,97569.47
2023-01-05T15:53:33.086Z,97574.56
2023-01-05T15:56:01.695Z,97573.72
2023-01-05T15:58:33.004Z,97562.91
2023-01-05T16:01:15.448Z,97574.22
2023-01-05T16:03:46.552Z,97563.09
2023-01-05T16:06:28.196Z,97571.00
2023-01-05T16:09:07.515Z,97578.38
2023-01-05T16:11:42.763Z,97576.81
2023-01-05T16:14:29.122Z,97572.13
2023-01-05T16:17:08.252Z,97589.19
2023-01-05T16:19:43.879Z,97570.13
2023-01-05T16:22:17.143Z,97589.94
2023-01-05T16:25:12.426Z,97612.94
2023-01-05T16:27:44.450Z,97601.66
2023-01-05T16:30:38.049Z,97607.31
2023-01-05T16:33:05.610Z,97623.66
2023-01-05T16:35:47.018Z,97626.25
2023-01-05T16:38:22.121Z,97648.44
2023-01-05T16:40:49.852Z,97653.16
2023-01-05T16:43:43.895Z,97669.72
2023-01-05T16:46:20.296Z,97665.13
2023-01-05T16:48:54.032Z,97665.97
2023-01-05T16:51:25.162Z,97684.91
2023-01-05T16:54:13.491Z,97689.50
2023-01-05T16:57:01.563Z,97678.03
2023-01-05T16:59:52.895Z,97695.09
2023-01-05T17:02:49.203Z,97681.97
2023-01-05T17:05:26.204Z,97696.44
2023-01-05T17:08:07.879Z,97684.16
2023-01-05T17:10:35.366Z,97690.50
2023-01-05T17:13:08.263Z,97692.38
2023-01-05T17:15:36.775Z,97704.44
2023-01-05T17:18:34.381Z,97703.41
2023-01-05T17:21:06.141Z,97711.94
2023-01-05T17:23:47.320Z,97725.16
2023-01-05T17:26:45.467Z,97721.72
2023-01-05T17:29:29.895Z,97727.53
2023-01-05T17:31:58.243Z,97731.09
2023-01-05T17:34:26.125Z,97746.19
2023-01-05T17:36:59.754Z,97730.03
2023-01-05T17:39:27.466Z,97743.97
2023-01-05T17:42:14.791Z,97747.91
2023-01-05T17:44:42.477Z,97763.84
2023-01-05T17:47:09.925Z,97773.16
2023-01-05T17:49:38.489Z,97758.16
2023-01-05T17:52:05.954Z,97762.28
2023-01-05T17:54:33.691Z,97758.38
2023-01-05T17:57:01.136Z,97753.78
2023-01-05T17:59:28.905Z,97765.53
2023-01-05T18:01:56.502Z,97766.34
2023-01-05T18:04:25.490Z,97772.91
2023-01-05T18:06:54.762Z,97773.88
2023-01-05T18:11:51.773Z,97788.34
2023-01-05T18:14:20.564Z,97788.53
2023-01-05T18:16:47.896Z,97799.50
2023-01-05T18:19:15.809Z,97792.81
2023-01-05T18:24:15.682Z,97800.72
2023-01-05T18:26:43.074Z,97819.03
2023-01-05T18:29:10.728Z,97836.41
2023-01-05T18:31:40.185Z,97826.28
2023-01-05T18:34:09.838Z,97828.31
2023-01-05T18:36:37.309Z,97829.56
2023-01-05T18:39:05.274Z,97846.38
2023-01-05T18:41:32.805Z,97840.31
2023-01-05T18:44:00.446Z,97830.78
2023-01-05T18:46:30.481Z,97852.41
2023-01-05T18:48:58.312Z,97843.41
2023-01-05T18:51:25.751Z,97860.66
2023-01-05T18:53:53.971Z,97857.22
2023-01-05T18:56:21.313Z,97850.75
2023-01-05T18:58:49.316Z,97858.75
2023-01-05T19:01:20.227Z,97872.28
2023-01-05T19:03:50.643Z,97873.31
2023-01-05T19:06:25.484Z,97885.03
2023-01-05T19:08:53.236Z,97879.84
2023-01-05T19:11:28.170Z,97882.59
2023-01-05T19:13:59.259Z,97874.75
2023-01-05T19:16:31.565Z,97880.03
2023-01-05T19:19:05.212Z,97901.47
2023-01-05T19:21:36.277Z,97874.19
2023-01-05T19:24:07.063Z,97870.47
2023-01-05T19:26:37.081Z,97913.97
2023-01-05T19:29:06.581Z,97896.59
2023-01-05T19:31:34.558Z,97908.75
2023-01-05T19:34:02.520Z,97918.56
2023-01-05T19:36:35.000Z,97907.72
2023-01-05T19:39:16.405Z,97913.19
2023-01-05T19:41:47.211Z,97921.66
2023-01-05T19:44:18.539Z,97936.53
2023-01-05T19:46:49.329Z,97907.16
2023-01-05T19:49:21.003Z,97924.59
2023-01-05T19:51:48.857Z,97925.38
2023-01-05T19:54:17.348Z,97921.56
2023-01-05T19:56:46.192Z,97936.69
2023-01-05T19:59:33.452Z,97937.53
2023-01-05T20:02:05.792Z,97948.09
2023-01-05T20:04:34.325Z,97946.91
2023-01-05T20:07:03.958Z,97954.25
2023-01-05T20:09:32.356Z,97959.53
2023-01-05T20:12:13.235Z,97963.53
2023-01-05T20:14:43.096Z,97964.34
2023-01-05T20:17:12.831Z,97971.88
2023-01-05T20:19:41.100Z,97980.41
2023-01-05T20:22:14.268Z,97984.38
2023-01-05T20:24:43.451Z,97992.97
2023-01-05T20:27:15.079Z,98000.75
2023-01-05T20:29:42.718Z,98012.41
2023-01-05T20:32:18.270Z,97993.75
2023-01-05T20:35:00.354Z,98017.66
2023-01-05T20:37:31.085Z,98017.81
2023-01-05T20:40:01.776Z,98023.59
2023-01-05T20:42:30.846Z,98034.41
2023-01-05T20:44:58.798Z,98051.66
2023-01-05T20:47:26.180Z,98052.16
2023-01-05T20:49:54.700Z,98060.47
2023-01-05T20:52:22.124Z,98060.19
2023-01-05T20:54:50.050Z,98066.25
2023-01-05T20:57:17.597Z,98082.41
2023-01-05T20:59:45.456Z,98085.84
2023-01-05T21:02:23.089Z,98080.75
2023-01-05T21:04:53.545Z,98087.69
2023-01-05T21:07:22.059Z,98100.59
2023-01-05T21:09:51.755Z,98102.03
2023-01-05T21:12:20.051Z,98117.09
2023-01-05T21:14:47.825Z,98119.38
2023-01-05T21:17:15.377Z,98130.75
2023-01-05T21:19:44.309Z,98134.19
2023-01-05T21:22:11.734Z,98138.88
2023-01-05T21:24:39.608Z,98144.81
2023-01-05T21:27:07.126Z,98142.47
2023-01-05T21:29:34.975Z,98132.25
2023-01-05T21:32:02.578Z,98132.50
2023-01-05T21:34:30.342Z,98128.38
2023-01-05T21:36:57.671Z,98137.53
2023-01-05T21:39:28.572Z,98138.75
2023-01-05T21:42:14.643Z,98125.28
2023-01-05T21:44:42.356Z,98139.53
2023-01-05T21:47:09.908Z,98141.78
2023-01-05T21:49:37.546Z,98140.78
2023-01-05T21:52:24.542Z,98141.34
2023-01-05T21:55:11.135Z,98146.06
2023-01-05T21:57:38.642Z,98151.38
2023-01-05T22:00:07.681Z,98155.84
2023-01-05T22:02:35.112Z,98160.78
2023-01-05T22:05:03.353Z,98167.31
2023-01-05T22:07:30.729Z,98171.66
2023-01-05T22:09:58.388Z,98171.66
2023-01-05T22:12:25.855Z,98172.44
2023-01-05T22:14:53.435Z,98178.31
2023-01-05T22:17:20.861Z,98174.88
2023-01-05T22:19:48.522Z,98186.69
2023-01-05T22:22:15.875Z,98177.47
2023-01-05T22:24:43.478Z,98182.13
2023-01-05T22:27:10.954Z,98208.75
2023-01-05T22:29:38.652Z,98203.56
2023-01-05T22:32:06.835Z,98199.72
2023-01-05T22:34:34.578Z,98213.31
2023-01-05T22:37:02.426Z,98219.13
2023-01-05T22:39:30.133Z,98233.16
2023-01-05T22:41:57.432Z,98232.03
2023-01-05T22:44:25.742Z,98244.00
2023-01-05T22:46:53.423Z,98239.13
2023-01-05T22:49:20.989Z,98232.19
2023-01-05T22:51:48.272Z,98246.47
2023-01-05T22:54:15.885Z,98257.31
2023-01-05T22:56:43.189Z,98259.03
2023-01-05T22:59:10.764Z,98254.53
2023-01-05T23:01:43.648Z,98252.03
2023-01-05T23:04:12.411Z,98260.66
2023-01-05T23:06:40.746Z,98240.84
2023-01-05T23:09:14.421Z,98244.75
2023-01-05T23:11:43.022Z,98246.91
2023-01-05T23:14:12.619Z,98241.78
2023-01-05T23:16:40.117Z,98264.16
2023-01-05T23:19:08.867Z,98266.91
2023-01-05T23:21:37.051Z,98268.34
2023-01-05T23:24:05.332Z,98275.94
2023-01-05T23:26:32.668Z,98291.31
2023-01-05T23:29:01.053Z,98305.22
2023-01-05T23:31:28.751Z,98292.38
2023-01-05T23:33:57.921Z,98292.31
2023-01-05T23:36:25.818Z,98298.56
2023-01-05T23:38:53.345Z,98312.81
2023-01-05T23:41:20.795Z,98306.94
2023-01-05T23:43:48.465Z,98328.13
2023-01-05T23:46:20.696Z,98312.25
2023-01-05T23:48:51.648Z,98313.50
2023-01-05T23:51:19.159Z,98309.00
2023-01-05T23:53:50.506Z,98308.81
2023-01-05T23:56:25.133Z,98305.34
2023-01-05T23:59:05.327Z,98322.38
